createdAt,value
2018-11-03T00:00:04.675Z,4.97
2018-11-03T00:01:05.015Z,5.04
2018-11-03T00:02:04.616Z,5
2018-11-03T00:03:04.692Z,5
2018-11-03T00:04:04.685Z,4.98
2018-11-03T00:05:04.670Z,5.02
2018-11-03T00:06:05.070Z,5.02
2018-11-03T00:07:04.644Z,5.03
2018-11-03T00:08:04.627Z,5.02
2018-11-03T00:09:04.627Z,5.03
2018-11-03T00:10:04.681Z,5.05
2018-11-03T00:11:04.632Z,4.97
2018-11-03T00:12:04.629Z,5.01
2018-11-03T00:13:04.656Z,4.91
2018-11-03T00:14:04.680Z,4.94
2018-11-03T00:15:04.716Z,4.96
2018-11-03T00:16:06.148Z,4.98
2018-11-03T00:17:04.685Z,4.95
2018-11-03T00:18:04.821Z,4.97
2018-11-03T00:19:04.640Z,4.98
2018-11-03T00:20:04.766Z,4.99
2018-11-03T00:21:04.818Z,5
2018-11-03T00:22:04.654Z,5.02
2018-11-03T00:23:04.643Z,5.02
2018-11-03T00:24:05.028Z,5.05
2018-11-03T00:25:04.634Z,5.07
2018-11-03T00:26:04.648Z,5.05
2018-11-03T00:27:04.663Z,5.08
2018-11-03T00:28:04.648Z,5.06
2018-11-03T00:29:04.678Z,5.06
2018-11-03T00:30:04.857Z,4.97
2018-11-03T00:31:04.988Z,4.97
2018-11-03T00:32:04.670Z,4.98
2018-11-03T00:33:05.007Z,5.02
2018-11-03T00:34:04.663Z,5
2018-11-03T00:35:04.619Z,4.91
2018-11-03T00:36:04.931Z,4.93
2018-11-03T00:37:04.673Z,4.97
2018-11-03T00:38:04.657Z,4.94
2018-11-03T00:39:04.629Z,4.97
2018-11-03T00:40:05.167Z,4.96
2018-11-03T00:41:04.630Z,4.98
2018-11-03T00:42:04.634Z,5.01
2018-11-03T00:43:04.761Z,4.99
2018-11-03T00:44:04.734Z,4.99
2018-11-03T00:45:04.829Z,4.99
2018-11-03T00:46:04.661Z,4.91
2018-11-03T00:47:04.609Z,4.95
2018-11-03T00:48:05.481Z,4.98
2018-11-03T00:49:04.627Z,4.79
2018-11-03T00:50:04.666Z,4.8
2018-11-03T00:51:04.667Z,4.84
2018-11-03T00:52:04.714Z,4.89
2018-11-03T00:53:04.864Z,4.9
2018-11-03T00:54:05.408Z,4.9
2018-11-03T00:55:04.617Z,4.88
2018-11-03T00:56:06.411Z,4.8
2018-11-03T00:57:04.652Z,4.72
2018-11-03T00:58:04.613Z,4.77
2018-11-03T00:59:04.572Z,4.74
2018-11-03T01:00:04.554Z,4.76
2018-11-03T01:01:04.566Z,4.74
2018-11-03T01:02:04.657Z,4.7
2018-11-03T01:03:04.845Z,4.7
2018-11-03T01:04:04.569Z,4.76
2018-11-03T01:05:04.710Z,4.8
2018-11-03T01:06:06.508Z,4.65
2018-11-03T01:07:04.649Z,4.74
2018-11-03T01:08:04.949Z,4.77
2018-11-03T01:09:04.666Z,4.78
2018-11-03T01:10:04.564Z,4.83
2018-11-03T01:11:04.561Z,4.83
2018-11-03T01:12:04.889Z,4.87
2018-11-03T01:13:04.643Z,4.83
2018-11-03T01:14:04.518Z,4.83
2018-11-03T01:15:04.849Z,4.87
2018-11-03T01:16:04.542Z,4.88
2018-11-03T01:17:04.521Z,4.88
2018-11-03T01:18:04.626Z,4.86
2018-11-03T01:19:04.721Z,4.84
2018-11-03T01:20:04.699Z,4.85
2018-11-03T01:21:04.555Z,4.92
2018-11-03T01:22:04.723Z,4.9
2018-11-03T01:23:04.698Z,4.86
2018-11-03T01:24:05.162Z,4.81
2018-11-03T01:25:04.525Z,4.85
2018-11-03T01:26:04.531Z,4.84
2018-11-03T01:27:04.536Z,4.83
2018-11-03T01:28:04.503Z,4.71
2018-11-03T01:29:04.622Z,4.69
2018-11-03T01:30:04.486Z,4.67
2018-11-03T01:31:04.492Z,4.74
2018-11-03T01:32:04.495Z,4.77
2018-11-03T01:33:04.508Z,4.58
2018-11-03T01:34:04.494Z,4.51
2018-11-03T01:35:04.524Z,4.62
2018-11-03T01:36:04.498Z,4.62
2018-11-03T01:37:04.506Z,4.61
2018-11-03T01:38:04.520Z,4.71
2018-11-03T01:39:04.489Z,4.61
2018-11-03T01:40:04.528Z,4.65
2018-11-03T01:41:04.501Z,4.63
2018-11-03T01:42:04.571Z,4.55
2018-11-03T01:43:04.533Z,4.61
2018-11-03T01:44:04.467Z,4.58
2018-11-03T01:45:04.494Z,4.57
2018-11-03T01:46:05.661Z,4.51
2018-11-03T01:47:04.846Z,4.56
2018-11-03T01:48:04.601Z,4.59
2018-11-03T01:49:04.713Z,4.59
2018-11-03T01:50:05.080Z,4.56
2018-11-03T01:51:04.633Z,4.49
2018-11-03T01:52:04.733Z,4.49
2018-11-03T01:53:04.822Z,4.56
2018-11-03T01:54:04.506Z,4.57
2018-11-03T01:55:04.595Z,4.54
2018-11-03T01:56:06.344Z,4.61
2018-11-03T01:57:04.548Z,4.57
2018-11-03T01:58:04.551Z,4.56
2018-11-03T01:59:04.421Z,4.61
2018-11-03T02:00:04.714Z,4.58
2018-11-03T02:01:04.560Z,4.58
2018-11-03T02:02:04.480Z,4.58
2018-11-03T02:03:04.525Z,4.61
2018-11-03T02:04:04.649Z,4.54
2018-11-03T02:05:04.483Z,4.43
2018-11-03T02:06:06.005Z,4.55
2018-11-03T02:07:04.514Z,4.47
2018-11-03T02:08:04.608Z,4.44
2018-11-03T02:09:04.583Z,4.36
2018-11-03T02:10:05.200Z,4.45
2018-11-03T02:11:04.567Z,4.46
2018-11-03T02:12:05.298Z,4.46
2018-11-03T02:13:04.481Z,4.5
2018-11-03T02:14:04.523Z,4.44
2018-11-03T02:15:04.632Z,4.47
2018-11-03T02:16:05.047Z,4.44
2018-11-03T02:17:04.747Z,4.4
2018-11-03T02:18:04.600Z,4.4
2018-11-03T02:19:04.512Z,4.36
2018-11-03T02:20:05.069Z,4.39
2018-11-03T02:21:04.917Z,4.46
2018-11-03T02:22:04.532Z,4.38
2018-11-03T02:23:04.550Z,4.31
2018-11-03T02:24:04.753Z,4.36
2018-11-03T02:25:04.805Z,4.38
2018-11-03T02:26:04.558Z,4.3
2018-11-03T02:27:04.615Z,4.25
2018-11-03T02:28:04.439Z,4.33
2018-11-03T02:29:04.531Z,4.33
2018-11-03T02:30:05.304Z,4.31
2018-11-03T02:31:04.426Z,4.35
2018-11-03T02:32:04.825Z,4.28
2018-11-03T02:33:04.568Z,4.32
2018-11-03T02:34:04.741Z,4.33
2018-11-03T02:35:04.462Z,4.33
2018-11-03T02:36:04.474Z,4.32
2018-11-03T02:37:06.113Z,4.35
2018-11-03T02:38:04.743Z,4.31
2018-11-03T02:39:05.002Z,4.29
2018-11-03T02:40:05.085Z,4.29
2018-11-03T02:41:04.836Z,4.24
2018-11-03T02:42:04.785Z,4.25
2018-11-03T02:43:04.672Z,4.22
2018-11-03T02:44:04.585Z,4.25
2018-11-03T02:45:04.628Z,4.28
2018-11-03T02:46:04.787Z,4.24
2018-11-03T02:47:06.179Z,4.26
2018-11-03T02:48:04.540Z,4.27
2018-11-03T02:49:04.513Z,4.25
2018-11-03T02:50:04.849Z,4.26
2018-11-03T02:51:04.556Z,4.25
2018-11-03T02:52:04.408Z,4.25
2018-11-03T02:53:04.793Z,4.26
2018-11-03T02:54:04.390Z,4.28
2018-11-03T02:55:04.525Z,4.27
2018-11-03T02:56:04.468Z,4.21
2018-11-03T02:57:06.147Z,4.27
2018-11-03T02:58:04.391Z,4.27
2018-11-03T02:59:04.490Z,4.29
2018-11-03T03:00:04.387Z,4.26
2018-11-03T03:01:04.417Z,4.31
2018-11-03T03:02:04.489Z,4.2
2018-11-03T03:03:04.551Z,4.2
2018-11-03T03:04:04.380Z,4.19
2018-11-03T03:05:04.438Z,4.16
2018-11-03T03:06:04.401Z,4.18
2018-11-03T03:07:05.919Z,4.23
2018-11-03T03:08:04.352Z,4.18
2018-11-03T03:09:04.491Z,4.22
2018-11-03T03:10:04.433Z,4.2
2018-11-03T03:11:04.395Z,4.24
2018-11-03T03:12:04.448Z,4.28
2018-11-03T03:13:04.462Z,4.25
2018-11-03T03:14:04.439Z,4.27
2018-11-03T03:15:04.367Z,4.25
2018-11-03T03:16:04.337Z,4.21
2018-11-03T03:17:05.772Z,4.25
2018-11-03T03:18:04.340Z,4.23
2018-11-03T03:19:04.417Z,4.2
2018-11-03T03:20:04.489Z,4.25
2018-11-03T03:21:04.404Z,4.26
2018-11-03T03:22:04.409Z,4.27
2018-11-03T03:23:04.456Z,4.28
2018-11-03T03:24:04.338Z,4.27
2018-11-03T03:25:04.852Z,4.26
2018-11-03T03:26:05.073Z,4.27
2018-11-03T03:27:06.045Z,4.24
2018-11-03T03:28:04.483Z,4.24
2018-11-03T03:29:05.889Z,4.24
2018-11-03T03:30:04.405Z,4.26
2018-11-03T03:31:04.375Z,4.29
2018-11-03T03:32:04.487Z,4.21
2018-11-03T03:33:04.723Z,4.24
2018-11-03T03:34:04.337Z,4.21
2018-11-03T03:35:04.469Z,4.22
2018-11-03T03:36:04.525Z,4.27
2018-11-03T03:37:04.493Z,4.25
2018-11-03T03:38:04.682Z,4.25
2018-11-03T03:39:04.349Z,4.25
2018-11-03T03:40:04.761Z,4.27
2018-11-03T03:41:04.352Z,4.31
2018-11-03T03:42:04.658Z,4.26
2018-11-03T03:43:04.383Z,4.23
2018-11-03T03:44:04.700Z,4.21
2018-11-03T03:45:04.672Z,4.22
2018-11-03T03:46:05.168Z,4.26
2018-11-03T03:47:04.468Z,4.23
2018-11-03T03:48:04.292Z,4.23
2018-11-03T03:49:04.523Z,4.21
2018-11-03T03:50:04.392Z,4.19
2018-11-03T03:51:04.333Z,4.16
2018-11-03T03:52:05.145Z,4.17
2018-11-03T03:53:04.353Z,4.13
2018-11-03T03:54:04.667Z,4.22
2018-11-03T03:55:04.572Z,4.23
2018-11-03T03:56:04.505Z,4.21
2018-11-03T03:57:04.674Z,4.17
2018-11-03T03:58:04.562Z,4.17
2018-11-03T03:59:04.752Z,4.16
2018-11-03T04:00:04.411Z,4.19
2018-11-03T04:01:04.696Z,4.18
2018-11-03T04:02:04.281Z,4.17
2018-11-03T04:03:04.629Z,4.17
2018-11-03T04:04:04.348Z,4.19
2018-11-03T04:05:04.305Z,4.16
2018-11-03T04:06:05.420Z,4.13
2018-11-03T04:07:04.370Z,4.22
2018-11-03T04:08:04.310Z,4.2
2018-11-03T04:09:04.337Z,4.25
2018-11-03T04:10:04.710Z,4.23
2018-11-03T04:11:04.388Z,4.24
2018-11-03T04:12:04.319Z,4.26
2018-11-03T04:13:04.275Z,4.25
2018-11-03T04:14:04.313Z,4.21
2018-11-03T04:15:04.670Z,4.21
2018-11-03T04:16:05.464Z,4.25
2018-11-03T04:17:04.319Z,4.27
2018-11-03T04:18:04.280Z,4.25
2018-11-03T04:19:04.340Z,4.23
2018-11-03T04:20:04.422Z,4.25
2018-11-03T04:21:04.546Z,4.25
2018-11-03T04:22:04.313Z,4.29
2018-11-03T04:23:04.412Z,4.24
2018-11-03T04:24:05.109Z,4.28
2018-11-03T04:25:04.362Z,4.3
2018-11-03T04:26:05.939Z,4.28
2018-11-03T04:27:04.505Z,4.26
2018-11-03T04:28:04.657Z,4.24
2018-11-03T04:29:04.314Z,4.21
2018-11-03T04:30:04.288Z,4.24
2018-11-03T04:31:04.236Z,4.29
2018-11-03T04:32:04.277Z,4.13
2018-11-03T04:33:04.277Z,4.27
2018-11-03T04:34:04.323Z,4.23
2018-11-03T04:35:04.344Z,4.08
2018-11-03T04:36:04.387Z,4.15
2018-11-03T04:37:04.377Z,4.14
2018-11-03T04:38:04.397Z,4.16
2018-11-03T04:39:04.250Z,4.15
2018-11-03T04:40:04.330Z,4.15
2018-11-03T04:41:04.268Z,4.02
2018-11-03T04:42:04.305Z,3.94
2018-11-03T04:43:04.247Z,4.09
2018-11-03T04:44:04.257Z,4.08
2018-11-03T04:45:04.743Z,4.07
2018-11-03T04:46:04.228Z,4.03
2018-11-03T04:47:04.248Z,4.03
2018-11-03T04:48:04.264Z,3.95
2018-11-03T04:49:04.219Z,4.06
2018-11-03T04:50:04.262Z,3.99
2018-11-03T04:51:04.248Z,4.09
2018-11-03T04:52:04.255Z,4.01
2018-11-03T04:53:04.815Z,4.05
2018-11-03T04:54:04.361Z,4.09
2018-11-03T04:55:05.424Z,4.08
2018-11-03T04:56:04.611Z,4.08
2018-11-03T04:57:04.367Z,4.22
2018-11-03T04:58:04.617Z,4.27
2018-11-03T04:59:04.185Z,4.44
2018-11-03T05:00:04.710Z,4.51
2018-11-03T05:01:04.301Z,4.43
2018-11-03T05:02:04.268Z,4.31
2018-11-03T05:03:04.441Z,4.25
2018-11-03T05:04:04.444Z,4.21
2018-11-03T05:05:04.714Z,4.22
2018-11-03T05:06:04.590Z,4.21
2018-11-03T05:07:04.234Z,4.19
2018-11-03T05:08:04.433Z,4.35
2018-11-03T05:09:04.256Z,4.31
2018-11-03T05:10:05.221Z,4.35
2018-11-03T05:11:05.062Z,4.26
2018-11-03T05:12:04.211Z,4.23
2018-11-03T05:13:04.182Z,4.2
2018-11-03T05:14:04.386Z,4.18
2018-11-03T05:15:04.502Z,4.18
2018-11-03T05:16:04.246Z,4.16
2018-11-03T05:17:04.622Z,4.12
2018-11-03T05:18:04.412Z,4.04
2018-11-03T05:19:04.192Z,4.06
2018-11-03T05:20:04.310Z,3.97
2018-11-03T05:21:04.480Z,4.04
2018-11-03T05:22:04.315Z,4.03
2018-11-03T05:23:04.437Z,4.07
2018-11-03T05:24:04.171Z,4.06
2018-11-03T05:25:04.325Z,4.12
2018-11-03T05:26:04.274Z,3.98
2018-11-03T05:27:04.176Z,3.98
2018-11-03T05:28:04.194Z,3.94
2018-11-03T05:29:04.247Z,3.98
2018-11-03T05:30:04.336Z,4
2018-11-03T05:31:04.766Z,4
2018-11-03T05:32:04.258Z,4
2018-11-03T05:33:04.165Z,3.97
2018-11-03T05:34:04.319Z,4.01
2018-11-03T05:35:04.576Z,4.03
2018-11-03T05:36:04.315Z,4.04
2018-11-03T05:37:04.161Z,4.02
2018-11-03T05:38:04.189Z,4
2018-11-03T05:39:04.747Z,4.02
2018-11-03T05:40:04.271Z,3.95
2018-11-03T05:41:04.351Z,3.96
2018-11-03T05:42:04.684Z,3.95
2018-11-03T05:43:04.320Z,3.95
2018-11-03T05:44:04.441Z,3.93
2018-11-03T05:45:04.175Z,3.96
2018-11-03T05:46:05.681Z,3.96
2018-11-03T05:47:04.339Z,3.91
2018-11-03T05:48:04.457Z,3.9
2018-11-03T05:49:04.526Z,3.9
2018-11-03T05:50:04.200Z,3.94
2018-11-03T05:51:04.868Z,3.93
2018-11-03T05:52:04.451Z,3.91
2018-11-03T05:53:04.250Z,3.95
2018-11-03T05:54:04.351Z,3.99
2018-11-03T05:55:04.553Z,3.98
2018-11-03T05:56:05.654Z,4.03
2018-11-03T05:57:04.603Z,3.91
2018-11-03T05:58:04.996Z,3.94
2018-11-03T05:59:05.065Z,3.93
2018-11-03T06:00:04.259Z,3.97
2018-11-03T06:01:04.195Z,3.99
2018-11-03T06:02:04.443Z,3.98
2018-11-03T06:03:04.504Z,4
2018-11-03T06:04:04.383Z,3.99
2018-11-03T06:05:04.183Z,4.01
2018-11-03T06:06:05.322Z,4.01
2018-11-03T06:07:04.141Z,4
2018-11-03T06:08:04.181Z,4
2018-11-03T06:09:04.146Z,4.02
2018-11-03T06:10:04.180Z,4.06
2018-11-03T06:11:04.133Z,4.01
2018-11-03T06:12:04.095Z,4.02
2018-11-03T06:13:04.199Z,4.01
2018-11-03T06:14:04.466Z,4.07
2018-11-03T06:15:04.344Z,4.06
2018-11-03T06:16:04.976Z,4.12
2018-11-03T06:17:04.106Z,4.09
2018-11-03T06:18:04.276Z,4.05
2018-11-03T06:19:04.126Z,4.06
2018-11-03T06:20:04.259Z,4.04
2018-11-03T06:21:04.128Z,4.05
2018-11-03T06:22:04.099Z,4.03
2018-11-03T06:23:04.866Z,4.04
2018-11-03T06:24:04.116Z,4.07
2018-11-03T06:25:04.334Z,4.05
2018-11-03T06:26:05.354Z,4.06
2018-11-03T06:27:04.218Z,4.07
2018-11-03T06:28:04.771Z,4.08
2018-11-03T06:29:04.532Z,3.99
2018-11-03T06:30:04.211Z,4.06
2018-11-03T06:31:04.141Z,4.05
2018-11-03T06:32:04.420Z,3.94
2018-11-03T06:33:04.246Z,4
2018-11-03T06:34:04.205Z,4.05
2018-11-03T06:35:05.084Z,4.03
2018-11-03T06:36:04.607Z,4.05
2018-11-03T06:37:04.487Z,4.03
2018-11-03T06:38:04.147Z,4.01
2018-11-03T06:39:05.284Z,3.97
2018-11-03T06:40:04.493Z,3.99
2018-11-03T06:41:04.179Z,4.01
2018-11-03T06:42:04.141Z,3.99
2018-11-03T06:43:04.158Z,4
2018-11-03T06:44:04.192Z,4.04
2018-11-03T06:45:04.130Z,4.05
2018-11-03T06:46:04.411Z,4.05
2018-11-03T06:47:04.383Z,4.03
2018-11-03T06:48:04.453Z,4.03
2018-11-03T06:49:04.118Z,3.99
2018-11-03T06:50:04.456Z,3.98
2018-11-03T06:51:04.102Z,3.96
2018-11-03T06:52:04.531Z,3.97
2018-11-03T06:53:04.287Z,3.97
2018-11-03T06:54:04.281Z,3.95
2018-11-03T06:55:04.400Z,3.95
2018-11-03T06:56:04.158Z,3.93
2018-11-03T06:57:04.517Z,4.01
2018-11-03T06:58:04.199Z,3.96
2018-11-03T06:59:04.063Z,3.97
2018-11-03T07:00:04.323Z,3.98
2018-11-03T07:01:04.210Z,4
2018-11-03T07:02:04.382Z,3.98
2018-11-03T07:03:04.129Z,3.99
2018-11-03T07:04:04.185Z,4.01
2018-11-03T07:05:04.564Z,4
2018-11-03T07:06:04.405Z,4.02
2018-11-03T07:07:04.092Z,3.99
2018-11-03T07:08:04.121Z,3.96
2018-11-03T07:09:04.192Z,3.95
2018-11-03T07:10:04.210Z,3.97
2018-11-03T07:11:04.072Z,3.97
2018-11-03T07:12:05.014Z,3.98
2018-11-03T07:13:04.661Z,3.95
2018-11-03T07:14:04.039Z,3.86
2018-11-03T07:15:04.625Z,3.82
2018-11-03T07:16:04.148Z,3.85
2018-11-03T07:17:04.572Z,3.94
2018-11-03T07:18:04.025Z,3.89
2018-11-03T07:19:04.022Z,3.91
2018-11-03T07:20:04.000Z,3.89
2018-11-03T07:21:04.122Z,3.81
2018-11-03T07:22:04.276Z,3.86
2018-11-03T07:23:04.027Z,3.8
2018-11-03T07:24:04.370Z,3.89
2018-11-03T07:25:04.342Z,3.85
2018-11-03T07:26:05.782Z,3.83
2018-11-03T07:27:04.164Z,3.86
2018-11-03T07:28:04.226Z,3.81
2018-11-03T07:29:04.126Z,3.88
2018-11-03T07:30:04.226Z,3.83
2018-11-03T07:31:04.281Z,3.79
2018-11-03T07:32:04.125Z,3.82
2018-11-03T07:33:04.162Z,3.85
2018-11-03T07:34:04.257Z,3.88
2018-11-03T07:35:04.437Z,3.84
2018-11-03T07:36:04.036Z,3.87
2018-11-03T07:37:04.281Z,3.81
2018-11-03T07:38:04.055Z,3.86
2018-11-03T07:39:04.040Z,3.84
2018-11-03T07:40:04.108Z,3.81
2018-11-03T07:41:04.894Z,3.83
2018-11-03T07:42:04.049Z,3.86
2018-11-03T07:43:04.084Z,3.86
2018-11-03T07:44:04.057Z,3.9
2018-11-03T07:45:05.294Z,3.83
2018-11-03T07:46:04.074Z,3.93
2018-11-03T07:47:04.080Z,3.89
2018-11-03T07:48:04.722Z,3.89
2018-11-03T07:49:06.028Z,3.91
2018-11-03T07:50:04.008Z,4
2018-11-03T07:51:04.133Z,3.97
2018-11-03T07:52:04.135Z,3.95
2018-11-03T07:53:04.288Z,3.97
2018-11-03T07:54:04.318Z,3.96
2018-11-03T07:55:05.670Z,4.01
2018-11-03T07:56:04.044Z,3.96
2018-11-03T07:57:04.063Z,3.99
2018-11-03T07:58:03.977Z,4.04
2018-11-03T07:59:04.238Z,4.06
2018-11-03T08:00:04.065Z,4
2018-11-03T08:01:04.269Z,4.07
2018-11-03T08:02:04.181Z,4.07
2018-11-03T08:03:04.078Z,4.02
2018-11-03T08:04:05.226Z,4.02
2018-11-03T08:05:04.322Z,4.03
2018-11-03T08:06:04.090Z,4.07
2018-11-03T08:07:04.291Z,4.13
2018-11-03T08:08:04.043Z,4.06
2018-11-03T08:09:04.736Z,4.13
2018-11-03T08:10:04.144Z,3.98
2018-11-03T08:11:04.627Z,4.03
2018-11-03T08:12:04.221Z,4.1
2018-11-03T08:13:04.265Z,4.08
2018-11-03T08:14:05.179Z,4.05
2018-11-03T08:15:04.106Z,4.09
2018-11-03T08:16:04.303Z,4.12
2018-11-03T08:17:04.352Z,4.15
2018-11-03T08:18:04.110Z,4.18
2018-11-03T08:19:04.277Z,4.13
2018-11-03T08:20:04.155Z,4.18
2018-11-03T08:21:03.936Z,4.21
2018-11-03T08:22:04.117Z,4.22
2018-11-03T08:23:04.142Z,4.2
2018-11-03T08:24:06.045Z,4.25
2018-11-03T08:25:03.945Z,4.26
2018-11-03T08:26:04.092Z,4.28
2018-11-03T08:27:04.154Z,4.22
2018-11-03T08:28:04.006Z,4.28
2018-11-03T08:29:04.136Z,4.35
2018-11-03T08:30:04.411Z,4.32
2018-11-03T08:31:04.074Z,4.33
2018-11-03T08:32:04.005Z,4.36
2018-11-03T08:33:04.496Z,4.38
2018-11-03T08:34:04.787Z,4.44
2018-11-03T08:35:04.166Z,4.37
2018-11-03T08:36:04.169Z,4.5
2018-11-03T08:37:04.082Z,4.39
2018-11-03T08:38:04.398Z,4.4
2018-11-03T08:39:04.075Z,4.44
2018-11-03T08:40:04.263Z,4.48
2018-11-03T08:41:04.006Z,4.53
2018-11-03T08:42:04.041Z,4.57
2018-11-03T08:43:04.135Z,4.56
2018-11-03T08:44:04.232Z,4.58
2018-11-03T08:45:04.109Z,4.6
2018-11-03T08:46:04.045Z,4.59
2018-11-03T08:47:03.960Z,4.6
2018-11-03T08:48:04.466Z,4.53
2018-11-03T08:49:04.577Z,4.53
2018-11-03T08:50:03.905Z,4.58
2018-11-03T08:51:04.160Z,4.62
2018-11-03T08:52:03.880Z,4.56
2018-11-03T08:53:04.217Z,4.65
2018-11-03T08:54:03.948Z,4.69
2018-11-03T08:55:05.669Z,4.7
2018-11-03T08:56:03.921Z,4.71
2018-11-03T08:57:03.882Z,4.67
2018-11-03T08:58:04.005Z,4.68
2018-11-03T08:59:03.943Z,4.74
2018-11-03T09:00:04.591Z,4.83
2018-11-03T09:01:04.008Z,4.78
2018-11-03T09:02:04.017Z,4.83
2018-11-03T09:03:04.156Z,4.87
2018-11-03T09:04:04.033Z,4.91
2018-11-03T09:05:05.226Z,4.86
2018-11-03T09:06:03.905Z,4.87
2018-11-03T09:07:05.363Z,4.89
2018-11-03T09:08:03.890Z,4.97
2018-11-03T09:09:40.554Z,4.95
2018-11-03T09:10:03.900Z,4.97
2018-11-03T09:11:04.229Z,5
2018-11-03T09:12:03.881Z,5
2018-11-03T09:13:04.095Z,4.93
2018-11-03T09:14:03.847Z,5.03
2018-11-03T09:15:06.038Z,5.01
2018-11-03T09:16:03.907Z,4.98
2018-11-03T09:17:04.257Z,5.03
2018-11-03T09:18:04.192Z,5.07
2018-11-03T09:19:03.935Z,5.05
2018-11-03T09:20:03.904Z,5.01
2018-11-03T09:21:03.871Z,5
2018-11-03T09:22:03.912Z,5
2018-11-03T09:23:03.863Z,4.89
2018-11-03T09:24:03.919Z,4.95
2018-11-03T09:25:03.883Z,4.97
2018-11-03T09:26:03.861Z,4.99
2018-11-03T09:27:03.902Z,5
2018-11-03T09:28:03.892Z,4.92
2018-11-03T09:29:04.022Z,4.98
2018-11-03T09:30:03.865Z,4.93
2018-11-03T09:31:03.940Z,5.05
2018-11-03T09:32:04.953Z,5.04
2018-11-03T09:33:03.891Z,4.91
2018-11-03T09:34:03.846Z,4.96
2018-11-03T09:35:03.847Z,4.99
2018-11-03T09:36:05.336Z,5.04
2018-11-03T09:37:03.960Z,5.14
2018-11-03T09:38:03.957Z,5.07
2018-11-03T09:39:04.601Z,5.15
2018-11-03T09:40:04.073Z,5.25
2018-11-03T09:41:03.879Z,5.3
2018-11-03T09:42:03.891Z,5.22
2018-11-03T09:43:04.765Z,5.4
2018-11-03T09:44:03.863Z,5.23
2018-11-03T09:45:04.961Z,5.19
2018-11-03T09:46:05.411Z,5.26
2018-11-03T09:47:04.036Z,5.24
2018-11-03T09:48:04.146Z,5.28
2018-11-03T09:49:04.408Z,5.39
2018-11-03T09:50:03.878Z,5.5
2018-11-03T09:51:04.403Z,5.46
2018-11-03T09:52:03.820Z,5.31
2018-11-03T09:53:03.823Z,5.43
2018-11-03T09:54:03.973Z,5.37
2018-11-03T09:55:03.856Z,5.39
2018-11-03T09:56:04.866Z,5.28
2018-11-03T09:57:04.132Z,5.28
2018-11-03T09:58:04.028Z,5.36
2018-11-03T09:59:03.855Z,5.34
2018-11-03T10:00:04.616Z,5.36
2018-11-03T10:01:04.140Z,5.44
2018-11-03T10:02:03.891Z,5.35
2018-11-03T10:03:04.171Z,5.34
2018-11-03T10:04:04.389Z,5.49
2018-11-03T10:05:04.073Z,5.55
2018-11-03T10:06:04.829Z,5.53
2018-11-03T10:07:03.833Z,5.46
2018-11-03T10:08:03.778Z,5.54
2018-11-03T10:09:04.106Z,5.51
2018-11-03T10:10:03.858Z,5.51
2018-11-03T10:11:03.771Z,5.58
2018-11-03T10:12:03.947Z,5.59
2018-11-03T10:13:03.868Z,5.65
2018-11-03T10:14:03.835Z,5.69
2018-11-03T10:15:03.777Z,5.57
2018-11-03T10:16:05.033Z,5.6
2018-11-03T10:17:04.604Z,5.54
2018-11-03T10:18:03.787Z,5.49
2018-11-03T10:19:04.183Z,5.53
2018-11-03T10:20:04.060Z,5.59
2018-11-03T10:21:03.845Z,5.57
2018-11-03T10:22:04.460Z,5.64
2018-11-03T10:23:05.056Z,5.58
2018-11-03T10:24:03.874Z,5.74
2018-11-03T10:25:04.039Z,5.69
2018-11-03T10:26:04.768Z,5.76
2018-11-03T10:27:03.889Z,5.61
2018-11-03T10:28:03.888Z,5.61
2018-11-03T10:29:03.841Z,5.71
2018-11-03T10:30:03.835Z,5.75
2018-11-03T10:31:03.837Z,5.59
2018-11-03T10:32:03.774Z,5.61
2018-11-03T10:33:03.811Z,5.8
2018-11-03T10:34:04.222Z,5.86
2018-11-03T10:35:04.082Z,5.78
2018-11-03T10:36:04.461Z,5.64
2018-11-03T10:37:03.963Z,5.68
2018-11-03T10:38:03.839Z,5.7
2018-11-03T10:39:03.766Z,5.78
2018-11-03T10:40:03.729Z,5.81
2018-11-03T10:41:03.867Z,5.75
2018-11-03T10:42:04.195Z,5.76
2018-11-03T10:43:03.772Z,5.74
2018-11-03T10:44:03.799Z,5.65
2018-11-03T10:45:03.707Z,5.7
2018-11-03T10:46:04.032Z,5.85
2018-11-03T10:47:03.917Z,5.97
2018-11-03T10:48:03.703Z,5.89
2018-11-03T10:49:03.755Z,6
2018-11-03T10:50:03.731Z,5.96
2018-11-03T10:51:03.752Z,5.77
2018-11-03T10:52:03.752Z,5.81
2018-11-03T10:53:03.819Z,5.93
2018-11-03T10:54:03.737Z,5.8
2018-11-03T10:55:03.713Z,5.85
2018-11-03T10:56:03.707Z,5.79
2018-11-03T10:57:05.278Z,5.79
2018-11-03T10:58:03.716Z,5.73
2018-11-03T10:59:03.717Z,5.87
2018-11-03T11:00:03.763Z,5.88
2018-11-03T11:01:03.679Z,5.93
2018-11-03T11:02:04.000Z,5.81
2018-11-03T11:03:03.708Z,5.83
2018-11-03T11:04:03.859Z,5.84
2018-11-03T11:05:03.845Z,5.79
2018-11-03T11:06:03.984Z,5.76
2018-11-03T11:07:05.253Z,5.84
2018-11-03T11:08:03.897Z,5.89
2018-11-03T11:09:04.103Z,5.92
2018-11-03T11:10:03.714Z,6.02
2018-11-03T11:11:03.880Z,6.02
2018-11-03T11:12:04.363Z,5.91
2018-11-03T11:13:03.670Z,5.94
2018-11-03T11:14:04.536Z,6.02
2018-11-03T11:15:03.743Z,6.03
2018-11-03T11:16:04.118Z,6.08
2018-11-03T11:17:05.710Z,6.08
2018-11-03T11:18:03.800Z,6.03
2018-11-03T11:19:03.754Z,6.03
2018-11-03T11:20:03.759Z,6.12
2018-11-03T11:21:03.728Z,6.26
2018-11-03T11:22:03.787Z,6.17
2018-11-03T11:23:03.704Z,5.98
2018-11-03T11:24:04.557Z,5.97
2018-11-03T11:25:05.265Z,5.96
2018-11-03T11:26:03.668Z,6
2018-11-03T11:27:05.281Z,6.11
2018-11-03T11:28:03.829Z,6.1
2018-11-03T11:29:03.786Z,6.2
2018-11-03T11:30:03.800Z,6.08
2018-11-03T11:31:03.779Z,6.06
2018-11-03T11:32:03.735Z,6.05
2018-11-03T11:33:04.483Z,5.95
2018-11-03T11:34:04.101Z,5.92
2018-11-03T11:35:03.721Z,5.97
2018-11-03T11:36:03.746Z,6.04
2018-11-03T11:37:04.463Z,6
2018-11-03T11:38:03.773Z,5.98
2018-11-03T11:39:04.446Z,6.14
2018-11-03T11:40:03.702Z,6.08
2018-11-03T11:41:03.914Z,6.16
2018-11-03T11:42:03.917Z,6.12
2018-11-03T11:43:04.359Z,6.09
2018-11-03T11:44:03.802Z,6.17
2018-11-03T11:45:03.729Z,6.13
2018-11-03T11:46:03.746Z,6.14
2018-11-03T11:47:04.327Z,6.14
2018-11-03T11:48:03.755Z,6.17
2018-11-03T11:49:18.540Z,6.07
2018-11-03T11:50:03.674Z,6.11
2018-11-03T11:51:03.746Z,6.15
2018-11-03T11:52:03.999Z,6.1
2018-11-03T11:53:03.836Z,6.08
2018-11-03T11:54:04.141Z,6.03
2018-11-03T11:55:04.831Z,6.15
2018-11-03T11:56:05.426Z,6.1
2018-11-03T11:57:05.453Z,6.18
2018-11-03T11:58:09.590Z,6.17
2018-11-03T11:59:03.937Z,6.11
2018-11-03T12:00:03.713Z,6.11
2018-11-03T12:01:03.698Z,5.98
2018-11-03T12:02:03.878Z,6.02
2018-11-03T12:03:03.823Z,6.07
2018-11-03T12:04:03.732Z,6.14
2018-11-03T12:05:03.714Z,6.22
2018-11-03T12:06:03.864Z,6.08
2018-11-03T12:07:03.889Z,6.08
2018-11-03T12:08:03.793Z,6.04
2018-11-03T12:09:03.695Z,6.13
2018-11-03T12:10:04.838Z,6.09
2018-11-03T12:11:03.646Z,6.04
2018-11-03T12:12:03.759Z,6.2
2018-11-03T12:13:03.829Z,6.11
2018-11-03T12:14:03.850Z,6.05
2018-11-03T12:15:03.976Z,6.09
2018-11-03T12:16:04.155Z,6.28
2018-11-03T12:17:03.730Z,6.28
2018-11-03T12:18:03.643Z,6.38
2018-11-03T12:19:03.830Z,6.24
2018-11-03T12:20:03.626Z,6.14
2018-11-03T12:21:03.669Z,6.13
2018-11-03T12:22:03.653Z,6.22
2018-11-03T12:23:03.655Z,6.24
2018-11-03T12:24:03.615Z,6.18
2018-11-03T12:25:03.640Z,6.17
2018-11-03T12:26:03.667Z,6.1
2018-11-03T12:27:04.067Z,6.2
2018-11-03T12:28:03.641Z,6.24
2018-11-03T12:29:03.666Z,6.26
2018-11-03T12:30:03.557Z,6.2
2018-11-03T12:31:03.632Z,6.3
2018-11-03T12:32:03.608Z,6.2
2018-11-03T12:33:03.780Z,6.16
2018-11-03T12:34:03.607Z,6.29
2018-11-03T12:35:03.632Z,6.21
2018-11-03T12:36:03.771Z,6.27
2018-11-03T12:37:04.039Z,6.22
2018-11-03T12:38:03.711Z,6.28
2018-11-03T12:39:03.603Z,6.33
2018-11-03T12:40:03.728Z,6.33
2018-11-03T12:41:03.943Z,6.33
2018-11-03T12:42:03.711Z,6.24
2018-11-03T12:43:03.601Z,6.25
2018-11-03T12:44:03.953Z,6.35
2018-11-03T12:45:03.723Z,6.29
2018-11-03T12:46:03.887Z,6.35
2018-11-03T12:47:03.669Z,6.21
2018-11-03T12:48:04.171Z,6.4
2018-11-03T12:49:03.754Z,6.29
2018-11-03T12:50:03.716Z,6.29
2018-11-03T12:51:03.858Z,6.36
2018-11-03T12:52:03.659Z,6.39
2018-11-03T12:53:03.752Z,6.26
2018-11-03T12:54:03.949Z,6.24
2018-11-03T12:55:03.605Z,6.18
2018-11-03T12:56:03.823Z,6.29
2018-11-03T12:57:05.206Z,6.23
2018-11-03T12:58:03.722Z,6.32
2018-11-03T12:59:04.501Z,6.18
2018-11-03T13:00:04.002Z,6.12
2018-11-03T13:01:04.282Z,6.2
2018-11-03T13:02:04.153Z,6.22
2018-11-03T13:03:03.611Z,6.26
2018-11-03T13:04:03.587Z,6.34
2018-11-03T13:05:04.147Z,6.33
2018-11-03T13:06:04.086Z,6.25
2018-11-03T13:07:05.168Z,6.33
2018-11-03T13:08:03.894Z,6.35
2018-11-03T13:09:03.579Z,6.34
2018-11-03T13:10:03.992Z,6.37
2018-11-03T13:11:04.107Z,6.37
2018-11-03T13:12:03.893Z,6.37
2018-11-03T13:13:03.744Z,6.46
2018-11-03T13:14:04.096Z,6.43
2018-11-03T13:15:03.650Z,6.49
2018-11-03T13:16:03.529Z,6.37
2018-11-03T13:17:03.784Z,6.32
2018-11-03T13:18:03.704Z,6.34
2018-11-03T13:19:03.886Z,6.41
2018-11-03T13:20:04.428Z,6.5
2018-11-03T13:21:03.696Z,6.53
2018-11-03T13:22:03.531Z,6.44